sensor_id;sensor_type;location;lat;lon;timestamp;temperature;humidity
4787;DHT22;62338;48.832;9.422;2023-05-16T00:00:26;9.50;99.90
4787;DHT22;62338;48.832;9.422;2023-05-16T00:02:29;9.50;99.90
4787;DHT22;62338;48.832;9.422;2023-05-16T00:04:31;9.40;99.90
4787;DHT22;62338;48.832;9.422;2023-05-16T00:06:34;9.40;99.90
4787;DHT22;62338;48.832;9.422;2023-05-16T00:08:36;9.40;99.90
4787;DHT22;62338;48.832;9.422;2023-05-16T00:10:38;9.40;99.90
4787;DHT22;62338;48.832;9.422;2023-05-16T00:12:40;9.30;99.90
4787;DHT22;62338;48.832;9.422;2023-05-16T00:14:42;9.40;99.90
4787;DHT22;62338;48.832;9.422;2023-05-16T00:16:44;9.40;99.90
4787;DHT22;62338;48.832;9.422;2023-05-16T00:18:46;9.40;99.90
4787;DHT22;62338;48.832;9.422;2023-05-16T00:20:49;9.30;99.90
4787;DHT22;62338;48.832;9.422;2023-05-16T00:22:53;9.40;99.90
4787;DHT22;62338;48.832;9.422;2023-05-16T00:24:55;9.30;99.90
4787;DHT22;62338;48.832;9.422;2023-05-16T00:26:57;9.20;99.90
4787;DHT22;62338;48.832;9.422;2023-05-16T00:28:58;9.20;99.90
4787;DHT22;62338;48.832;9.422;2023-05-16T00:31:00;9.10;99.90
4787;DHT22;62338;48.832;9.422;2023-05-16T00:33:02;9.20;99.90
4787;DHT22;62338;48.832;9.422;2023-05-16T00:35:05;9.10;99.90
4787;DHT22;62338;48.832;9.422;2023-05-16T00:37:07;9.10;99.90
4787;DHT22;62338;48.832;9.422;2023-05-16T00:39:09;9.00;99.90
4787;DHT22;62338;48.832;9.422;2023-05-16T00:41:12;8.90;99.90
4787;DHT22;62338;48.832;9.422;2023-05-16T00:43:14;8.90;99.90
4787;DHT22;62338;48.832;9.422;2023-05-16T00:45:16;8.80;99.90
4787;DHT22;62338;48.832;9.422;2023-05-16T00:47:18;8.70;99.90
4787;DHT22;62338;48.832;9.422;2023-05-16T00:49:21;8.70;99.90
4787;DHT22;62338;48.832;9.422;2023-05-16T00:51:23;8.70;99.90
4787;DHT22;62338;48.832;9.422;2023-05-16T00:53:25;8.60;99.90
4787;DHT22;62338;48.832;9.422;2023-05-16T00:55:27;8.60;99.90
4787;DHT22;62338;48.832;9.422;2023-05-16T00:57:29;8.70;99.90
4787;DHT22;62338;48.832;9.422;2023-05-16T00:59:31;8.80;99.90
4787;DHT22;62338;48.832;9.422;2023-05-16T01:01:35;8.80;99.90
4787;DHT22;62338;48.832;9.422;2023-05-16T01:03:38;8.80;99.90
4787;DHT22;62338;48.832;9.422;2023-05-16T01:05:40;8.70;99.90
4787;DHT22;62338;48.832;9.422;2023-05-16T01:07:41;8.80;99.90
4787;DHT22;62338;48.832;9.422;2023-05-16T01:09:43;8.80;99.90
4787;DHT22;62338;48.832;9.422;2023-05-16T01:16:49;8.70;99.90
4787;DHT22;62338;48.832;9.422;2023-05-16T01:21:09;8.70;99.90
4787;DHT22;62338;48.832;9.422;2023-05-16T01:23:39;8.70;99.90
4787;DHT22;62338;48.832;9.422;2023-05-16T01:28:15;8.70;99.90
4787;DHT22;62338;48.832;9.422;2023-05-16T01:30:19;8.70;99.90
4787;DHT22;62338;48.832;9.422;2023-05-16T01:32:21;8.70;99.90
4787;DHT22;62338;48.832;9.422;2023-05-16T01:34:23;8.70;99.90
4787;DHT22;62338;48.832;9.422;2023-05-16T01:44:22;8.70;99.90
4787;DHT22;62338;48.832;9.422;2023-05-16T01:46:26;8.70;99.90
4787;DHT22;62338;48.832;9.422;2023-05-16T01:48:36;8.70;99.90
4787;DHT22;62338;48.832;9.422;2023-05-16T01:50:43;8.60;99.90
4787;DHT22;62338;48.832;9.422;2023-05-16T01:54:53;8.70;99.90
4787;DHT22;62338;48.832;9.422;2023-05-16T01:56:58;8.70;99.90
4787;DHT22;62338;48.832;9.422;2023-05-16T01:59:01;8.60;99.90
4787;DHT22;62338;48.832;9.422;2023-05-16T02:01:04;8.60;99.90
4787;DHT22;62338;48.832;9.422;2023-05-16T02:03:07;8.60;99.90
4787;DHT22;62338;48.832;9.422;2023-05-16T02:05:09;8.50;99.90
4787;DHT22;62338;48.832;9.422;2023-05-16T02:07:12;8.50;99.90
4787;DHT22;62338;48.832;9.422;2023-05-16T02:09:15;8.50;99.90
4787;DHT22;62338;48.832;9.422;2023-05-16T02:11:17;8.60;99.90
4787;DHT22;62338;48.832;9.422;2023-05-16T02:13:19;8.50;99.90
4787;DHT22;62338;48.832;9.422;2023-05-16T02:15:21;8.60;99.90
4787;DHT22;62338;48.832;9.422;2023-05-16T02:17:22;8.50;99.90
4787;DHT22;62338;48.832;9.422;2023-05-16T02:19:24;8.50;99.90
4787;DHT22;62338;48.832;9.422;2023-05-16T02:21:26;8.50;99.90
4787;DHT22;62338;48.832;9.422;2023-05-16T02:23:28;8.50;99.90
4787;DHT22;62338;48.832;9.422;2023-05-16T02:25:30;8.60;99.90
4787;DHT22;62338;48.832;9.422;2023-05-16T02:27:31;8.60;99.90
4787;DHT22;62338;48.832;9.422;2023-05-16T02:29:33;8.70;99.90
4787;DHT22;62338;48.832;9.422;2023-05-16T02:31:35;8.70;99.90
4787;DHT22;62338;48.832;9.422;2023-05-16T02:33:37;8.80;99.90
4787;DHT22;62338;48.832;9.422;2023-05-16T02:35:38;8.80;99.90
4787;DHT22;62338;48.832;9.422;2023-05-16T02:37:40;8.90;99.90
4787;DHT22;62338;48.832;9.422;2023-05-16T02:39:42;8.90;99.90
4787;DHT22;62338;48.832;9.422;2023-05-16T02:41:44;8.90;99.90
4787;DHT22;62338;48.832;9.422;2023-05-16T02:43:46;8.90;99.90
4787;DHT22;62338;48.832;9.422;2023-05-16T02:45:48;8.90;99.90
4787;DHT22;62338;48.832;9.422;2023-05-16T02:47:50;8.90;99.90
4787;DHT22;62338;48.832;9.422;2023-05-16T02:49:51;8.90;99.90
4787;DHT22;62338;48.832;9.422;2023-05-16T02:51:53;8.90;99.90
4787;DHT22;62338;48.832;9.422;2023-05-16T02:53:55;9.00;99.90
4787;DHT22;62338;48.832;9.422;2023-05-16T02:56:03;9.00;99.90
4787;DHT22;62338;48.832;9.422;2023-05-16T02:58:07;9.00;99.90
4787;DHT22;62338;48.832;9.422;2023-05-16T03:00:09;9.10;99.90
4787;DHT22;62338;48.832;9.422;2023-05-16T03:02:12;9.10;99.90
4787;DHT22;62338;48.832;9.422;2023-05-16T03:04:14;9.20;99.90
4787;DHT22;62338;48.832;9.422;2023-05-16T03:06:16;9.20;99.90
4787;DHT22;62338;48.832;9.422;2023-05-16T03:08:17;9.20;99.90
4787;DHT22;62338;48.832;9.422;2023-05-16T03:10:19;9.30;99.90
4787;DHT22;62338;48.832;9.422;2023-05-16T03:12:21;9.30;99.90
4787;DHT22;62338;48.832;9.422;2023-05-16T03:14:23;9.30;99.90
4787;DHT22;62338;48.832;9.422;2023-05-16T03:16:25;9.40;99.90
4787;DHT22;62338;48.832;9.422;2023-05-16T03:18:26;9.40;99.90
4787;DHT22;62338;48.832;9.422;2023-05-16T03:20:28;9.40;99.90
4787;DHT22;62338;48.832;9.422;2023-05-16T03:22:30;9.40;99.90
4787;DHT22;62338;48.832;9.422;2023-05-16T03:24:32;9.40;99.90
4787;DHT22;62338;48.832;9.422;2023-05-16T03:26:33;9.50;99.90
4787;DHT22;62338;48.832;9.422;2023-05-16T03:28:36;9.50;99.90
4787;DHT22;62338;48.832;9.422;2023-05-16T03:30:37;9.50;99.90
4787;DHT22;62338;48.832;9.422;2023-05-16T03:32:39;9.50;99.90
4787;DHT22;62338;48.832;9.422;2023-05-16T03:34:41;9.50;99.90
4787;DHT22;62338;48.832;9.422;2023-05-16T03:36:42;9.60;99.90
4787;DHT22;62338;48.832;9.422;2023-05-16T03:38:44;9.60;99.90
4787;DHT22;62338;48.832;9.422;2023-05-16T03:40:46;9.60;99.90
4787;DHT22;62338;48.832;9.422;2023-05-16T03:42:48;9.60;99.90
4787;DHT22;62338;48.832;9.422;2023-05-16T03:44:49;9.50;99.90
4787;DHT22;62338;48.832;9.422;2023-05-16T03:46:51;9.60;99.90
4787;DHT22;62338;48.832;9.422;2023-05-16T03:48:54;9.60;99.90
4787;DHT22;62338;48.832;9.422;2023-05-16T03:50:56;9.50;99.90
4787;DHT22;62338;48.832;9.422;2023-05-16T03:52:58;9.50;99.90
4787;DHT22;62338;48.832;9.422;2023-05-16T03:55:00;9.50;99.90
4787;DHT22;62338;48.832;9.422;2023-05-16T03:57:03;9.50;99.90
4787;DHT22;62338;48.832;9.422;2023-05-16T03:59:05;9.50;99.90
4787;DHT22;62338;48.832;9.422;2023-05-16T04:01:07;9.50;99.90
4787;DHT22;62338;48.832;9.422;2023-05-16T04:03:09;9.50;99.90
4787;DHT22;62338;48.832;9.422;2023-05-16T04:05:11;9.50;99.90
4787;DHT22;62338;48.832;9.422;2023-05-16T04:07:14;9.50;99.90
4787;DHT22;62338;48.832;9.422;2023-05-16T04:09:16;9.50;99.90
4787;DHT22;62338;48.832;9.422;2023-05-16T04:11:19;9.50;99.90
4787;DHT22;62338;48.832;9.422;2023-05-16T04:13:21;9.50;99.90
4787;DHT22;62338;48.832;9.422;2023-05-16T04:15:23;9.50;99.90
4787;DHT22;62338;48.832;9.422;2023-05-16T04:17:25;9.60;99.90
4787;DHT22;62338;48.832;9.422;2023-05-16T04:19:27;9.60;99.90
4787;DHT22;62338;48.832;9.422;2023-05-16T04:21:29;9.60;99.90
4787;DHT22;62338;48.832;9.422;2023-05-16T04:23:31;9.60;99.90
4787;DHT22;62338;48.832;9.422;2023-05-16T04:25:33;9.60;99.90
4787;DHT22;62338;48.832;9.422;2023-05-16T04:27:34;9.60;99.90
4787;DHT22;62338;48.832;9.422;2023-05-16T04:29:36;9.60;99.90
4787;DHT22;62338;48.832;9.422;2023-05-16T04:31:38;9.60;99.90
4787;DHT22;62338;48.832;9.422;2023-05-16T04:33:40;9.60;99.90
4787;DHT22;62338;48.832;9.422;2023-05-16T04:35:42;9.60;99.90
4787;DHT22;62338;48.832;9.422;2023-05-16T04:37:44;9.70;99.90
4787;DHT22;62338;48.832;9.422;2023-05-16T04:39:46;9.70;99.90
4787;DHT22;62338;48.832;9.422;2023-05-16T04:41:48;9.70;99.90
4787;DHT22;62338;48.832;9.422;2023-05-16T04:43:49;9.70;99.90
4787;DHT22;62338;48.832;9.422;2023-05-16T04:45:52;9.70;99.90
4787;DHT22;62338;48.832;9.422;2023-05-16T04:48:00;9.80;99.90
4787;DHT22;62338;48.832;9.422;2023-05-16T04:50:03;9.80;99.90
4787;DHT22;62338;48.832;9.422;2023-05-16T04:52:05;9.90;99.90
4787;DHT22;62338;48.832;9.422;2023-05-16T04:54:08;9.90;99.90
4787;DHT22;62338;48.832;9.422;2023-05-16T04:56:11;9.90;99.90
4787;DHT22;62338;48.832;9.422;2023-05-16T04:58:12;9.90;99.90
4787;DHT22;62338;48.832;9.422;2023-05-16T05:00:16;10.00;99.90
4787;DHT22;62338;48.832;9.422;2023-05-16T05:02:18;10.00;99.90
4787;DHT22;62338;48.832;9.422;2023-05-16T05:04:19;10.00;99.90
4787;DHT22;62338;48.832;9.422;2023-05-16T05:06:21;10.10;99.90
4787;DHT22;62338;48.832;9.422;2023-05-16T05:08:23;10.10;99.90
4787;DHT22;62338;48.832;9.422;2023-05-16T05:10:24;10.20;99.90
4787;DHT22;62338;48.832;9.422;2023-05-16T05:12:28;10.10;99.90
4787;DHT22;62338;48.832;9.422;2023-05-16T05:14:29;10.10;99.90
4787;DHT22;62338;48.832;9.422;2023-05-16T05:16:35;10.10;99.90
4787;DHT22;62338;48.832;9.422;2023-05-16T05:18:37;10.20;99.90
4787;DHT22;62338;48.832;9.422;2023-05-16T05:20:39;10.20;99.90
4787;DHT22;62338;48.832;9.422;2023-05-16T05:22:41;10.20;99.90
4787;DHT22;62338;48.832;9.422;2023-05-16T05:24:43;10.20;99.90
4787;DHT22;62338;48.832;9.422;2023-05-16T05:26:44;10.30;99.90
4787;DHT22;62338;48.832;9.422;2023-05-16T05:28:47;10.30;99.90
4787;DHT22;62338;48.832;9.422;2023-05-16T05:31:04;10.40;99.90
4787;DHT22;62338;48.832;9.422;2023-05-16T05:33:06;10.40;99.90
4787;DHT22;62338;48.832;9.422;2023-05-16T05:35:08;10.40;99.90
4787;DHT22;62338;48.832;9.422;2023-05-16T05:37:10;10.50;99.90
4787;DHT22;62338;48.832;9.422;2023-05-16T05:39:12;10.50;99.90
4787;DHT22;62338;48.832;9.422;2023-05-16T05:41:13;10.50;99.90
4787;DHT22;62338;48.832;9.422;2023-05-16T05:43:15;10.50;99.90
4787;DHT22;62338;48.832;9.422;2023-05-16T05:45:17;10.50;99.90
4787;DHT22;62338;48.832;9.422;2023-05-16T05:47:19;10.40;99.90
4787;DHT22;62338;48.832;9.422;2023-05-16T05:49:21;10.40;99.90
4787;DHT22;62338;48.832;9.422;2023-05-16T05:51:24;10.30;99.90
4787;DHT22;62338;48.832;9.422;2023-05-16T05:53:26;10.30;99.90
4787;DHT22;62338;48.832;9.422;2023-05-16T05:55:28;10.30;99.90
4787;DHT22;62338;48.832;9.422;2023-05-16T05:57:30;10.30;99.90
4787;DHT22;62338;48.832;9.422;2023-05-16T05:59:31;10.30;99.90
4787;DHT22;62338;48.832;9.422;2023-05-16T06:01:33;10.40;99.90
4787;DHT22;62338;48.832;9.422;2023-05-16T06:03:35;10.40;99.90
4787;DHT22;62338;48.832;9.422;2023-05-16T06:05:37;10.40;99.90
4787;DHT22;62338;48.832;9.422;2023-05-16T06:07:38;10.50;99.90
4787;DHT22;62338;48.832;9.422;2023-05-16T06:09:41;10.50;99.90
4787;DHT22;62338;48.832;9.422;2023-05-16T06:11:43;10.70;99.90
4787;DHT22;62338;48.832;9.422;2023-05-16T06:13:46;10.70;99.90
4787;DHT22;62338;48.832;9.422;2023-05-16T06:15:52;10.80;99.90
4787;DHT22;62338;48.832;9.422;2023-05-16T06:17:54;11.00;99.90
4787;DHT22;62338;48.832;9.422;2023-05-16T06:19:55;11.10;99.90
4787;DHT22;62338;48.832;9.422;2023-05-16T06:21:57;11.30;99.90
4787;DHT22;62338;48.832;9.422;2023-05-16T06:23:59;11.60;99.90
4787;DHT22;62338;48.832;9.422;2023-05-16T06:26:02;11.70;99.90
4787;DHT22;62338;48.832;9.422;2023-05-16T06:28:04;11.90;99.90
4787;DHT22;62338;48.832;9.422;2023-05-16T06:30:06;11.90;99.90
4787;DHT22;62338;48.832;9.422;2023-05-16T06:32:09;11.90;99.90
4787;DHT22;62338;48.832;9.422;2023-05-16T06:34:13;11.90;99.90
4787;DHT22;62338;48.832;9.422;2023-05-16T06:36:15;12.10;99.90
4787;DHT22;62338;48.832;9.422;2023-05-16T06:38:17;12.00;99.90
4787;DHT22;62338;48.832;9.422;2023-05-16T06:40:22;12.00;99.90
4787;DHT22;62338;48.832;9.422;2023-05-16T06:42:24;12.00;99.90
4787;DHT22;62338;48.832;9.422;2023-05-16T06:44:26;12.10;99.90
4787;DHT22;62338;48.832;9.422;2023-05-16T06:46:28;12.30;99.90
4787;DHT22;62338;48.832;9.422;2023-05-16T06:48:30;12.40;99.90
4787;DHT22;62338;48.832;9.422;2023-05-16T06:50:31;12.40;99.90
4787;DHT22;62338;48.832;9.422;2023-05-16T06:52:33;12.50;99.90
4787;DHT22;62338;48.832;9.422;2023-05-16T06:54:35;12.70;99.90
4787;DHT22;62338;48.832;9.422;2023-05-16T06:56:37;13.00;99.90
4787;DHT22;62338;48.832;9.422;2023-05-16T06:58:38;12.90;82.30
4787;DHT22;62338;48.832;9.422;2023-05-16T07:00:40;13.00;53.00
4787;DHT22;62338;48.832;9.422;2023-05-16T07:02:42;15.40;68.80
4787;DHT22;62338;48.832;9.422;2023-05-16T07:04:44;13.00;93.00
4787;DHT22;62338;48.832;9.422;2023-05-16T07:06:46;13.00;53.30
4787;DHT22;62338;48.832;9.422;2023-05-16T07:08:48;13.10;55.00
4787;DHT22;62338;48.832;9.422;2023-05-16T07:10:49;13.10;18.60
4787;DHT22;62338;48.832;9.422;2023-05-16T07:12:51;13.10;47.30
4787;DHT22;62338;48.832;9.422;2023-05-16T07:14:53;13.10;32.10
4787;DHT22;62338;48.832;9.422;2023-05-16T07:16:54;13.10;28.20
4787;DHT22;62338;48.832;9.422;2023-05-16T07:18:56;13.30;30.30
4787;DHT22;62338;48.832;9.422;2023-05-16T07:20:58;13.70;1.00
4787;DHT22;62338;48.832;9.422;2023-05-16T07:23:00;13.70;1.00
4787;DHT22;62338;48.832;9.422;2023-05-16T07:25:02;13.80;1.00
4787;DHT22;62338;48.832;9.422;2023-05-16T07:27:04;14.20;1.00
4787;DHT22;62338;48.832;9.422;2023-05-16T07:29:06;14.70;1.00
4787;DHT22;62338;48.832;9.422;2023-05-16T07:31:08;15.00;1.00
4787;DHT22;62338;48.832;9.422;2023-05-16T07:33:10;14.70;1.00
4787;DHT22;62338;48.832;9.422;2023-05-16T07:35:12;14.40;1.00
4787;DHT22;62338;48.832;9.422;2023-05-16T07:37:14;14.40;1.00
4787;DHT22;62338;48.832;9.422;2023-05-16T07:39:16;14.40;1.00
4787;DHT22;62338;48.832;9.422;2023-05-16T07:41:18;14.30;1.00
4787;DHT22;62338;48.832;9.422;2023-05-16T07:43:20;14.40;1.00
4787;DHT22;62338;48.832;9.422;2023-05-16T07:45:22;14.30;1.00
4787;DHT22;62338;48.832;9.422;2023-05-16T07:47:24;14.20;1.00
4787;DHT22;62338;48.832;9.422;2023-05-16T07:49:26;14.00;1.00
4787;DHT22;62338;48.832;9.422;2023-05-16T07:51:28;14.10;1.00
4787;DHT22;62338;48.832;9.422;2023-05-16T07:53:29;14.30;1.00
4787;DHT22;62338;48.832;9.422;2023-05-16T07:55:31;14.30;1.00
4787;DHT22;62338;48.832;9.422;2023-05-16T07:57:33;14.40;1.00
4787;DHT22;62338;48.832;9.422;2023-05-16T07:59:37;14.20;1.00
4787;DHT22;62338;48.832;9.422;2023-05-16T08:01:39;13.90;1.00
4787;DHT22;62338;48.832;9.422;2023-05-16T08:03:41;13.60;1.00
4787;DHT22;62338;48.832;9.422;2023-05-16T08:05:43;13.50;1.00
4787;DHT22;62338;48.832;9.422;2023-05-16T08:07:45;13.30;1.00
4787;DHT22;62338;48.832;9.422;2023-05-16T08:09:48;13.30;1.00
4787;DHT22;62338;48.832;9.422;2023-05-16T08:11:50;13.30;1.00
4787;DHT22;62338;48.832;9.422;2023-05-16T08:13:51;13.30;1.00
4787;DHT22;62338;48.832;9.422;2023-05-16T08:15:53;13.30;1.00
4787;DHT22;62338;48.832;9.422;2023-05-16T08:17:57;13.40;1.00
4787;DHT22;62338;48.832;9.422;2023-05-16T08:19:59;13.60;1.00
4787;DHT22;62338;48.832;9.422;2023-05-16T08:22:02;14.00;1.00
4787;DHT22;62338;48.832;9.422;2023-05-16T08:24:04;13.80;1.00
4787;DHT22;62338;48.832;9.422;2023-05-16T08:26:07;13.70;1.00
4787;DHT22;62338;48.832;9.422;2023-05-16T08:28:08;13.60;1.00
4787;DHT22;62338;48.832;9.422;2023-05-16T08:30:11;13.50;1.00
4787;DHT22;62338;48.832;9.422;2023-05-16T08:32:13;13.20;1.00
4787;DHT22;62338;48.832;9.422;2023-05-16T08:34:15;13.00;1.00
4787;DHT22;62338;48.832;9.422;2023-05-16T08:36:16;12.80;1.00
4787;DHT22;62338;48.832;9.422;2023-05-16T08:38:20;12.60;1.00
4787;DHT22;62338;48.832;9.422;2023-05-16T08:40:25;12.60;1.00
4787;DHT22;62338;48.832;9.422;2023-05-16T08:42:27;12.40;11.30
4787;DHT22;62338;48.832;9.422;2023-05-16T08:44:29;12.40;54.20
4787;DHT22;62338;48.832;9.422;2023-05-16T08:46:32;12.20;94.40
4787;DHT22;62338;48.832;9.422;2023-05-16T08:48:37;12.10;99.90
4787;DHT22;62338;48.832;9.422;2023-05-16T08:50:41;11.80;99.90
4787;DHT22;62338;48.832;9.422;2023-05-16T08:52:45;11.70;99.90
4787;DHT22;62338;48.832;9.422;2023-05-16T08:54:49;11.70;99.90
4787;DHT22;62338;48.832;9.422;2023-05-16T08:57:09;11.70;99.90
4787;DHT22;62338;48.832;9.422;2023-05-16T08:59:11;11.80;99.90
4787;DHT22;62338;48.832;9.422;2023-05-16T09:01:13;11.80;99.90
4787;DHT22;62338;48.832;9.422;2023-05-16T09:03:16;11.90;99.90
4787;DHT22;62338;48.832;9.422;2023-05-16T09:05:18;11.90;99.90
4787;DHT22;62338;48.832;9.422;2023-05-16T09:07:20;11.90;99.90
4787;DHT22;62338;48.832;9.422;2023-05-16T09:09:22;12.00;99.90
4787;DHT22;62338;48.832;9.422;2023-05-16T09:11:24;11.90;99.90
4787;DHT22;62338;48.832;9.422;2023-05-16T09:13:26;12.00;99.90
4787;DHT22;62338;48.832;9.422;2023-05-16T09:15:31;12.20;99.90
4787;DHT22;62338;48.832;9.422;2023-05-16T09:17:44;12.30;92.80
4787;DHT22;62338;48.832;9.422;2023-05-16T09:19:46;12.20;97.40
4787;DHT22;62338;48.832;9.422;2023-05-16T09:21:51;12.30;98.90
4787;DHT22;62338;48.832;9.422;2023-05-16T09:23:53;12.50;41.10
4787;DHT22;62338;48.832;9.422;2023-05-16T09:25:57;12.70;47.20
4787;DHT22;62338;48.832;9.422;2023-05-16T09:28:00;12.80;7.40
4787;DHT22;62338;48.832;9.422;2023-05-16T09:30:04;12.90;8.10
4787;DHT22;62338;48.832;9.422;2023-05-16T09:32:14;13.00;1.00
4787;DHT22;62338;48.832;9.422;2023-05-16T09:34:21;13.30;1.00
4787;DHT22;62338;48.832;9.422;2023-05-16T09:36:24;13.60;1.00
4787;DHT22;62338;48.832;9.422;2023-05-16T09:38:27;13.80;1.00
4787;DHT22;62338;48.832;9.422;2023-05-16T09:40:29;13.90;1.00
4787;DHT22;62338;48.832;9.422;2023-05-16T09:42:31;14.00;1.00
4787;DHT22;62338;48.832;9.422;2023-05-16T09:44:33;14.10;1.00
4787;DHT22;62338;48.832;9.422;2023-05-16T09:46:36;13.90;1.00
4787;DHT22;62338;48.832;9.422;2023-05-16T09:48:48;13.90;1.00
4787;DHT22;62338;48.832;9.422;2023-05-16T09:50:52;13.90;1.00
4787;DHT22;62338;48.832;9.422;2023-05-16T09:52:55;13.80;1.00
4787;DHT22;62338;48.832;9.422;2023-05-16T09:54:57;13.70;1.00
4787;DHT22;62338;48.832;9.422;2023-05-16T09:57:00;13.70;1.00
4787;DHT22;62338;48.832;9.422;2023-05-16T09:59:09;13.80;1.00
4787;DHT22;62338;48.832;9.422;2023-05-16T10:01:12;13.80;1.00
4787;DHT22;62338;48.832;9.422;2023-05-16T10:03:14;13.70;1.00
4787;DHT22;62338;48.832;9.422;2023-05-16T10:05:16;13.70;1.00
4787;DHT22;62338;48.832;9.422;2023-05-16T10:07:19;13.70;1.00
4787;DHT22;62338;48.832;9.422;2023-05-16T10:09:22;13.50;1.00
4787;DHT22;62338;48.832;9.422;2023-05-16T10:11:25;13.30;1.00
4787;DHT22;62338;48.832;9.422;2023-05-16T10:13:29;13.20;1.00
4787;DHT22;62338;48.832;9.422;2023-05-16T10:15:31;13.10;1.00
4787;DHT22;62338;48.832;9.422;2023-05-16T10:17:35;13.20;1.00
4787;DHT22;62338;48.832;9.422;2023-05-16T10:19:40;13.10;1.00
4787;DHT22;62338;48.832;9.422;2023-05-16T10:21:47;13.00;1.00
4787;DHT22;62338;48.832;9.422;2023-05-16T10:23:53;13.10;1.00
4787;DHT22;62338;48.832;9.422;2023-05-16T10:25:59;13.20;1.00
4787;DHT22;62338;48.832;9.422;2023-05-16T10:28:02;13.30;1.00
4787;DHT22;62338;48.832;9.422;2023-05-16T10:30:05;13.30;1.00
4787;DHT22;62338;48.832;9.422;2023-05-16T10:32:09;13.20;1.00
4787;DHT22;62338;48.832;9.422;2023-05-16T10:34:11;13.20;1.00
4787;DHT22;62338;48.832;9.422;2023-05-16T10:36:14;13.20;1.00
4787;DHT22;62338;48.832;9.422;2023-05-16T10:38:17;13.00;1.00
4787;DHT22;62338;48.832;9.422;2023-05-16T10:40:21;11.40;1.00
4787;DHT22;62338;48.832;9.422;2023-05-16T10:42:23;12.90;1.00
4787;DHT22;62338;48.832;9.422;2023-05-16T10:44:24;13.00;1.00
4787;DHT22;62338;48.832;9.422;2023-05-16T10:46:27;13.30;1.00
4787;DHT22;62338;48.832;9.422;2023-05-16T10:48:37;13.50;1.00
4787;DHT22;62338;48.832;9.422;2023-05-16T10:50:44;13.60;1.00
4787;DHT22;62338;48.832;9.422;2023-05-16T10:52:51;13.50;1.00
4787;DHT22;62338;48.832;9.422;2023-05-16T10:54:53;13.50;1.00
4787;DHT22;62338;48.832;9.422;2023-05-16T10:56:56;13.40;1.00
4787;DHT22;62338;48.832;9.422;2023-05-16T10:58:58;13.20;1.00
4787;DHT22;62338;48.832;9.422;2023-05-16T11:01:22;13.20;1.00
4787;DHT22;62338;48.832;9.422;2023-05-16T11:03:27;12.90;1.00
4787;DHT22;62338;48.832;9.422;2023-05-16T11:05:29;12.80;1.00
4787;DHT22;62338;48.832;9.422;2023-05-16T11:07:33;12.90;1.00
4787;DHT22;62338;48.832;9.422;2023-05-16T11:09:43;12.90;1.00
4787;DHT22;62338;48.832;9.422;2023-05-16T11:13:53;13.10;1.00
4787;DHT22;62338;48.832;9.422;2023-05-16T11:16:28;13.30;1.00
4787;DHT22;62338;48.832;9.422;2023-05-16T11:18:31;13.50;1.00
4787;DHT22;62338;48.832;9.422;2023-05-16T11:20:38;13.50;1.00
4787;DHT22;62338;48.832;9.422;2023-05-16T11:22:40;13.40;1.00
4787;DHT22;62338;48.832;9.422;2023-05-16T11:24:59;13.30;1.00
4787;DHT22;62338;48.832;9.422;2023-05-16T11:27:02;13.50;1.00
4787;DHT22;62338;48.832;9.422;2023-05-16T11:29:04;13.50;1.00
4787;DHT22;62338;48.832;9.422;2023-05-16T11:31:08;13.60;1.00
4787;DHT22;62338;48.832;9.422;2023-05-16T11:33:10;13.60;1.00
4787;DHT22;62338;48.832;9.422;2023-05-16T11:35:15;13.70;1.00
4787;DHT22;62338;48.832;9.422;2023-05-16T11:37:18;13.50;1.00
4787;DHT22;62338;48.832;9.422;2023-05-16T11:39:21;13.20;1.00
4787;DHT22;62338;48.832;9.422;2023-05-16T11:41:26;13.10;1.00
4787;DHT22;62338;48.832;9.422;2023-05-16T11:43:28;12.70;1.00
4787;DHT22;62338;48.832;9.422;2023-05-16T11:45:29;12.60;1.00
4787;DHT22;62338;48.832;9.422;2023-05-16T11:47:31;12.50;4.30
4787;DHT22;62338;48.832;9.422;2023-05-16T11:49:33;12.40;9.40
4787;DHT22;62338;48.832;9.422;2023-05-16T11:51:40;12.30;21.80
4787;DHT22;62338;48.832;9.422;2023-05-16T11:53:42;12.20;64.20
4787;DHT22;62338;48.832;9.422;2023-05-16T11:55:45;12.00;79.10
4787;DHT22;62338;48.832;9.422;2023-05-16T11:57:57;11.90;99.90
4787;DHT22;62338;48.832;9.422;2023-05-16T12:00:16;11.80;99.90
4787;DHT22;62338;48.832;9.422;2023-05-16T12:02:19;11.60;99.90
4787;DHT22;62338;48.832;9.422;2023-05-16T12:04:21;11.40;99.90
4787;DHT22;62338;48.832;9.422;2023-05-16T12:06:24;11.30;99.90
4787;DHT22;62338;48.832;9.422;2023-05-16T12:08:27;11.20;99.90
4787;DHT22;62338;48.832;9.422;2023-05-16T12:10:30;11.10;99.90
4787;DHT22;62338;48.832;9.422;2023-05-16T12:12:36;11.20;99.90
4787;DHT22;62338;48.832;9.422;2023-05-16T12:14:38;11.10;99.90
4787;DHT22;62338;48.832;9.422;2023-05-16T12:16:40;11.10;99.90
4787;DHT22;62338;48.832;9.422;2023-05-16T12:18:44;11.20;99.90
4787;DHT22;62338;48.832;9.422;2023-05-16T12:20:46;11.20;99.90
4787;DHT22;62338;48.832;9.422;2023-05-16T12:22:48;11.30;99.90
4787;DHT22;62338;48.832;9.422;2023-05-16T12:24:50;11.40;99.90
4787;DHT22;62338;48.832;9.422;2023-05-16T12:26:52;11.60;99.90
4787;DHT22;62338;48.832;9.422;2023-05-16T12:28:55;11.90;99.90
4787;DHT22;62338;48.832;9.422;2023-05-16T12:31:03;12.20;99.90
4787;DHT22;62338;48.832;9.422;2023-05-16T12:35:11;12.30;96.90
4787;DHT22;62338;48.832;9.422;2023-05-16T12:37:13;12.30;61.40
4787;DHT22;62338;48.832;9.422;2023-05-16T12:39:15;12.40;27.60
4787;DHT22;62338;48.832;9.422;2023-05-16T12:41:21;12.60;45.40
4787;DHT22;62338;48.832;9.422;2023-05-16T12:43:24;12.80;1.00
4787;DHT22;62338;48.832;9.422;2023-05-16T12:45:26;12.90;1.00
4787;DHT22;62338;48.832;9.422;2023-05-16T12:47:36;13.00;1.00
4787;DHT22;62338;48.832;9.422;2023-05-16T12:49:45;13.20;1.00
4787;DHT22;62338;48.832;9.422;2023-05-16T12:51:49;13.50;1.00
4787;DHT22;62338;48.832;9.422;2023-05-16T12:53:51;13.70;1.00
4787;DHT22;62338;48.832;9.422;2023-05-16T12:56:11;13.90;1.00
4787;DHT22;62338;48.832;9.422;2023-05-16T12:58:12;14.00;1.00
4787;DHT22;62338;48.832;9.422;2023-05-16T13:00:16;13.90;1.00
4787;DHT22;62338;48.832;9.422;2023-05-16T13:02:21;13.90;1.00
4787;DHT22;62338;48.832;9.422;2023-05-16T13:04:23;13.90;1.00
4787;DHT22;62338;48.832;9.422;2023-05-16T13:06:25;13.90;1.00
4787;DHT22;62338;48.832;9.422;2023-05-16T13:08:27;13.70;1.00
4787;DHT22;62338;48.832;9.422;2023-05-16T13:10:29;13.30;1.00
4787;DHT22;62338;48.832;9.422;2023-05-16T13:12:32;13.30;1.00
4787;DHT22;62338;48.832;9.422;2023-05-16T13:14:34;13.10;1.00
4787;DHT22;62338;48.832;9.422;2023-05-16T13:16:36;13.10;1.00
4787;DHT22;62338;48.832;9.422;2023-05-16T13:18:38;12.90;1.00
4787;DHT22;62338;48.832;9.422;2023-05-16T13:20:40;12.80;1.00
4787;DHT22;62338;48.832;9.422;2023-05-16T13:22:43;12.80;1.00
4787;DHT22;62338;48.832;9.422;2023-05-16T13:24:45;12.70;1.00
4787;DHT22;62338;48.832;9.422;2023-05-16T13:26:47;12.80;1.00
4787;DHT22;62338;48.832;9.422;2023-05-16T13:28:48;12.70;1.00
4787;DHT22;62338;48.832;9.422;2023-05-16T13:30:53;12.70;1.00
4787;DHT22;62338;48.832;9.422;2023-05-16T13:32:55;12.60;1.00
4787;DHT22;62338;48.832;9.422;2023-05-16T13:34:57;12.50;1.00
4787;DHT22;62338;48.832;9.422;2023-05-16T13:36:59;12.30;1.00
4787;DHT22;62338;48.832;9.422;2023-05-16T13:39:01;12.10;1.00
4787;DHT22;62338;48.832;9.422;2023-05-16T13:41:03;11.90;1.00
4787;DHT22;62338;48.832;9.422;2023-05-16T13:43:05;11.70;1.00